sensor_id;sensor_type;location;lat;lon;timestamp;P1;durP1;ratioP1;P2;durP2;ratioP2
62121;SDS011;48108;47.532;19.084;2023-07-31T03:58:00;3.12;;;2.58;;
62121;SDS011;48108;47.532;19.084;2023-07-31T04:01:03;3.80;;;2.30;;
62121;SDS011;48108;47.532;19.084;2023-07-31T04:04:06;2.47;;;2.28;;
62121;SDS011;48108;47.532;19.084;2023-07-31T04:07:09;3.12;;;2.45;;
62121;SDS011;48108;47.532;19.084;2023-07-31T04:10:12;2.92;;;2.30;;
62121;SDS011;48108;47.532;19.084;2023-07-31T04:13:15;3.00;;;2.28;;
62121;SDS011;48108;47.532;19.084;2023-07-31T04:16:18;3.05;;;2.50;;
62121;SDS011;48108;47.532;19.084;2023-07-31T04:19:21;3.25;;;2.47;;
62121;SDS011;48108;47.532;19.084;2023-07-31T04:22:24;3.70;;;1.98;;
62121;SDS011;48108;47.532;19.084;2023-07-31T04:25:26;3.40;;;2.30;;
62121;SDS011;48108;47.532;19.084;2023-07-31T04:28:29;3.00;;;2.40;;
62121;SDS011;48108;47.532;19.084;2023-07-31T04:31:34;3.75;;;2.08;;
62121;SDS011;48108;47.532;19.084;2023-07-31T04:34:41;2.47;;;2.10;;
62121;SDS011;48108;47.532;19.084;2023-07-31T04:37:43;2.80;;;2.08;;
62121;SDS011;48108;47.532;19.084;2023-07-31T04:40:49;2.60;;;1.90;;
62121;SDS011;48108;47.532;19.084;2023-07-31T04:43:51;2.40;;;2.20;;
62121;SDS011;48108;47.532;19.084;2023-07-31T04:46:54;2.87;;;2.00;;
62121;SDS011;48108;47.532;19.084;2023-07-31T04:49:57;1.80;;;1.70;;
62121;SDS011;48108;47.532;19.084;2023-07-31T04:53:00;2.22;;;2.00;;
62121;SDS011;48108;47.532;19.084;2023-07-31T04:56:03;2.30;;;2.10;;
62121;SDS011;48108;47.532;19.084;2023-07-31T04:59:06;3.40;;;2.20;;
62121;SDS011;48108;47.532;19.084;2023-07-31T05:02:09;2.42;;;1.73;;
62121;SDS011;48108;47.532;19.084;2023-07-31T05:05:14;1.77;;;1.65;;
62121;SDS011;48108;47.532;19.084;2023-07-31T05:08:17;1.70;;;1.60;;
62121;SDS011;48108;47.532;19.084;2023-07-31T05:11:23;2.50;;;1.67;;
62121;SDS011;48108;47.532;19.084;2023-07-31T05:14:25;2.60;;;1.58;;
62121;SDS011;48108;47.532;19.084;2023-07-31T05:17:28;2.80;;;1.90;;
62121;SDS011;48108;47.532;19.084;2023-07-31T05:20:31;2.17;;;1.98;;
62121;SDS011;48108;47.532;19.084;2023-07-31T05:23:34;3.17;;;1.87;;
62121;SDS011;48108;47.532;19.084;2023-07-31T05:26:37;2.05;;;1.80;;
62121;SDS011;48108;47.532;19.084;2023-07-31T05:29:41;3.72;;;1.98;;
62121;SDS011;48108;47.532;19.084;2023-07-31T05:32:43;1.80;;;1.50;;
62121;SDS011;48108;47.532;19.084;2023-07-31T05:35:46;2.55;;;1.48;;
62121;SDS011;48108;47.532;19.084;2023-07-31T05:38:49;4.60;;;1.83;;
62121;SDS011;48108;47.532;19.084;2023-07-31T05:41:52;2.35;;;1.83;;
62121;SDS011;48108;47.532;19.084;2023-07-31T05:44:55;4.10;;;1.70;;
62121;SDS011;48108;47.532;19.084;2023-07-31T05:47:58;2.75;;;1.20;;
62121;SDS011;48108;47.532;19.084;2023-07-31T05:51:00;1.45;;;1.33;;
62121;SDS011;48108;47.532;19.084;2023-07-31T05:54:04;2.55;;;1.50;;
62121;SDS011;48108;47.532;19.084;2023-07-31T05:57:07;2.87;;;1.42;;
62121;SDS011;48108;47.532;19.084;2023-07-31T06:00:10;3.37;;;1.73;;
62121;SDS011;48108;47.532;19.084;2023-07-31T06:03:14;3.12;;;1.55;;
62121;SDS011;48108;47.532;19.084;2023-07-31T06:06:17;3.12;;;1.55;;
62121;SDS011;48108;47.532;19.084;2023-07-31T06:09:20;4.93;;;1.65;;
62121;SDS011;48108;47.532;19.084;2023-07-31T06:12:22;1.52;;;1.40;;
62121;SDS011;48108;47.532;19.084;2023-07-31T06:15:25;1.95;;;1.52;;
62121;SDS011;48108;47.532;19.084;2023-07-31T06:18:28;3.28;;;1.35;;
62121;SDS011;48108;47.532;19.084;2023-07-31T06:21:31;3.33;;;1.30;;
62121;SDS011;48108;47.532;19.084;2023-07-31T06:24:34;2.42;;;1.55;;
62121;SDS011;48108;47.532;19.084;2023-07-31T06:27:37;3.22;;;1.40;;
62121;SDS011;48108;47.532;19.084;2023-07-31T06:30:39;1.58;;;1.48;;
62121;SDS011;48108;47.532;19.084;2023-07-31T06:33:42;5.72;;;1.50;;
62121;SDS011;48108;47.532;19.084;2023-07-31T06:36:45;6.20;;;1.60;;
62121;SDS011;48108;47.532;19.084;2023-07-31T06:39:48;2.00;;;1.73;;
62121;SDS011;48108;47.532;19.084;2023-07-31T06:42:51;2.92;;;1.50;;
62121;SDS011;48108;47.532;19.084;2023-07-31T06:45:54;3.17;;;1.75;;
62121;SDS011;48108;47.532;19.084;2023-07-31T06:48:57;3.03;;;1.35;;
62121;SDS011;48108;47.532;19.084;2023-07-31T06:51:59;3.75;;;1.75;;
62121;SDS011;48108;47.532;19.084;2023-07-31T06:55:03;1.40;;;1.30;;
62121;SDS011;48108;47.532;19.084;2023-07-31T06:58:20;3.70;;;1.50;;
62121;SDS011;48108;47.532;19.084;2023-07-31T07:01:22;1.92;;;1.50;;
62121;SDS011;48108;47.532;19.084;2023-07-31T07:04:25;1.77;;;1.65;;
62121;SDS011;48108;47.532;19.084;2023-07-31T07:07:29;1.90;;;1.73;;
62121;SDS011;48108;47.532;19.084;2023-07-31T07:10:32;4.57;;;1.92;;
62121;SDS011;48108;47.532;19.084;2023-07-31T07:13:34;2.12;;;1.27;;
62121;SDS011;48108;47.532;19.084;2023-07-31T07:16:41;2.03;;;1.70;;
62121;SDS011;48108;47.532;19.084;2023-07-31T07:19:44;3.25;;;1.62;;
62121;SDS011;48108;47.532;19.084;2023-07-31T07:22:48;2.15;;;1.75;;
62121;SDS011;48108;47.532;19.084;2023-07-31T07:25:51;2.53;;;2.05;;
62121;SDS011;48108;47.532;19.084;2023-07-31T07:28:55;4.70;;;1.80;;
62121;SDS011;48108;47.532;19.084;2023-07-31T07:32:03;3.92;;;1.90;;
62121;SDS011;48108;47.532;19.084;2023-07-31T07:35:06;5.30;;;2.03;;
62121;SDS011;48108;47.532;19.084;2023-07-31T07:38:09;3.17;;;2.22;;
62121;SDS011;48108;47.532;19.084;2023-07-31T07:41:12;1.67;;;1.50;;
62121;SDS011;48108;47.532;19.084;2023-07-31T07:44:15;2.92;;;1.40;;
62121;SDS011;48108;47.532;19.084;2023-07-31T07:47:18;2.65;;;1.70;;
62121;SDS011;48108;47.532;19.084;2023-07-31T07:50:20;3.28;;;1.73;;
62121;SDS011;48108;47.532;19.084;2023-07-31T07:53:23;2.10;;;1.60;;
62121;SDS011;48108;47.532;19.084;2023-07-31T07:56:26;2.97;;;1.80;;
62121;SDS011;48108;47.532;19.084;2023-07-31T07:59:30;2.90;;;1.30;;
62121;SDS011;48108;47.532;19.084;2023-07-31T08:02:32;1.70;;;1.60;;
62121;SDS011;48108;47.532;19.084;2023-07-31T08:05:36;2.55;;;1.92;;
62121;SDS011;48108;47.532;19.084;2023-07-31T08:08:38;2.15;;;1.50;;
62121;SDS011;48108;47.532;19.084;2023-07-31T08:11:41;3.60;;;2.45;;
62121;SDS011;48108;47.532;19.084;2023-07-31T08:14:44;1.87;;;1.40;;
62121;SDS011;48108;47.532;19.084;2023-07-31T08:17:47;1.55;;;1.33;;
62121;SDS011;48108;47.532;19.084;2023-07-31T08:20:50;1.67;;;1.35;;
62121;SDS011;48108;47.532;19.084;2023-07-31T08:23:53;1.95;;;1.77;;
62121;SDS011;48108;47.532;19.084;2023-07-31T08:26:56;2.12;;;1.50;;
62121;SDS011;48108;47.532;19.084;2023-07-31T08:29:59;3.00;;;1.40;;
62121;SDS011;48108;47.532;19.084;2023-07-31T08:33:02;1.42;;;1.30;;
62121;SDS011;48108;47.532;19.084;2023-07-31T08:36:05;2.17;;;1.48;;
62121;SDS011;48108;47.532;19.084;2023-07-31T08:39:08;1.52;;;1.30;;
62121;SDS011;48108;47.532;19.084;2023-07-31T08:42:11;1.62;;;1.52;;
62121;SDS011;48108;47.532;19.084;2023-07-31T08:45:15;2.42;;;1.80;;
62121;SDS011;48108;47.532;19.084;2023-07-31T08:48:20;3.17;;;1.55;;
62121;SDS011;48108;47.532;19.084;2023-07-31T08:51:24;3.55;;;1.75;;
62121;SDS011;48108;47.532;19.084;2023-07-31T08:54:29;3.92;;;1.73;;
62121;SDS011;48108;47.532;19.084;2023-07-31T08:57:34;1.73;;;1.60;;
62121;SDS011;48108;47.532;19.084;2023-07-31T09:00:39;3.25;;;1.40;;
62121;SDS011;48108;47.532;19.084;2023-07-31T09:03:43;2.58;;;1.50;;
62121;SDS011;48108;47.532;19.084;2023-07-31T09:06:47;2.55;;;1.37;;
62121;SDS011;48108;47.532;19.084;2023-07-31T09:09:50;1.40;;;1.30;;
62121;SDS011;48108;47.532;19.084;2023-07-31T09:12:53;4.45;;;1.83;;
62121;SDS011;48108;47.532;19.084;2023-07-31T09:15:58;1.95;;;1.80;;
62121;SDS011;48108;47.532;19.084;2023-07-31T09:19:01;2.50;;;1.55;;
62121;SDS011;48108;47.532;19.084;2023-07-31T09:22:06;9.10;;;1.83;;
62121;SDS011;48108;47.532;19.084;2023-07-31T09:25:30;1.55;;;1.30;;
62121;SDS011;48108;47.532;19.084;2023-07-31T09:28:32;4.45;;;1.40;;
62121;SDS011;48108;47.532;19.084;2023-07-31T09:31:41;2.85;;;1.20;;
62121;SDS011;48108;47.532;19.084;2023-07-31T09:34:45;2.72;;;1.62;;
62121;SDS011;48108;47.532;19.084;2023-07-31T09:37:53;3.90;;;1.73;;
62121;SDS011;48108;47.532;19.084;2023-07-31T09:40:57;2.22;;;1.80;;
62121;SDS011;48108;47.532;19.084;2023-07-31T09:44:02;3.95;;;1.75;;
62121;SDS011;48108;47.532;19.084;2023-07-31T09:47:04;5.50;;;1.30;;
62121;SDS011;48108;47.532;19.084;2023-07-31T09:50:07;3.60;;;1.48;;
62121;SDS011;48108;47.532;19.084;2023-07-31T09:53:11;2.05;;;1.40;;
62121;SDS011;48108;47.532;19.084;2023-07-31T09:56:15;2.58;;;1.60;;
62121;SDS011;48108;47.532;19.084;2023-07-31T09:59:19;1.60;;;1.45;;
62121;SDS011;48108;47.532;19.084;2023-07-31T10:02:26;2.78;;;1.48;;
62121;SDS011;48108;47.532;19.084;2023-07-31T10:05:40;3.05;;;1.42;;
62121;SDS011;48108;47.532;19.084;2023-07-31T10:08:50;2.20;;;1.00;;
62121;SDS011;48108;47.532;19.084;2023-07-31T10:11:56;2.35;;;1.40;;
62121;SDS011;48108;47.532;19.084;2023-07-31T10:15:03;2.03;;;1.60;;
62121;SDS011;48108;47.532;19.084;2023-07-31T10:18:06;3.17;;;1.30;;
62121;SDS011;48108;47.532;19.084;2023-07-31T10:21:09;3.35;;;1.30;;
62121;SDS011;48108;47.532;19.084;2023-07-31T10:24:13;4.97;;;1.27;;
62121;SDS011;48108;47.532;19.084;2023-07-31T10:27:18;2.87;;;1.35;;
62121;SDS011;48108;47.532;19.084;2023-07-31T10:30:22;1.95;;;1.30;;
62121;SDS011;48108;47.532;19.084;2023-07-31T10:33:28;2.12;;;1.48;;
62121;SDS011;48108;47.532;19.084;2023-07-31T10:36:32;4.00;;;1.40;;
62121;SDS011;48108;47.532;19.084;2023-07-31T10:39:36;2.45;;;1.40;;
62121;SDS011;48108;47.532;19.084;2023-07-31T10:45:52;3.17;;;1.50;;
62121;SDS011;48108;47.532;19.084;2023-07-31T10:48:57;6.25;;;1.65;;
62121;SDS011;48108;47.532;19.084;2023-07-31T10:52:03;3.65;;;1.12;;
62121;SDS011;48108;47.532;19.084;2023-07-31T10:55:25;2.70;;;1.55;;
62121;SDS011;48108;47.532;19.084;2023-07-31T10:58:29;3.53;;;1.60;;
62121;SDS011;48108;47.532;19.084;2023-07-31T11:01:49;4.65;;;1.40;;
62121;SDS011;48108;47.532;19.084;2023-07-31T11:05:18;2.95;;;1.12;;
62121;SDS011;48108;47.532;19.084;2023-07-31T11:08:23;1.40;;;1.02;;
62121;SDS011;48108;47.532;19.084;2023-07-31T11:11:27;3.45;;;1.25;;
62121;SDS011;48108;47.532;19.084;2023-07-31T11:14:30;0.70;;;0.70;;
62121;SDS011;48108;47.532;19.084;2023-07-31T11:17:32;2.92;;;1.10;;
62121;SDS011;48108;47.532;19.084;2023-07-31T11:20:36;2.05;;;1.00;;
62121;SDS011;48108;47.532;19.084;2023-07-31T11:23:39;3.03;;;1.12;;
62121;SDS011;48108;47.532;19.084;2023-07-31T11:26:49;2.20;;;1.00;;
62121;SDS011;48108;47.532;19.084;2023-07-31T11:30:01;1.70;;;1.00;;
62121;SDS011;48108;47.532;19.084;2023-07-31T11:33:05;2.05;;;1.10;;
62121;SDS011;48108;47.532;19.084;2023-07-31T11:36:18;2.72;;;1.37;;
62121;SDS011;48108;47.532;19.084;2023-07-31T11:39:23;1.33;;;1.02;;
62121;SDS011;48108;47.532;19.084;2023-07-31T11:42:26;2.30;;;0.95;;
62121;SDS011;48108;47.532;19.084;2023-07-31T11:45:29;1.73;;;1.10;;
62121;SDS011;48108;47.532;19.084;2023-07-31T11:48:33;2.05;;;1.00;;
62121;SDS011;48108;47.532;19.084;2023-07-31T11:51:39;2.75;;;1.17;;
62121;SDS011;48108;47.532;19.084;2023-07-31T11:54:41;4.15;;;1.00;;
62121;SDS011;48108;47.532;19.084;2023-07-31T11:57:47;2.12;;;0.80;;
62121;SDS011;48108;47.532;19.084;2023-07-31T12:00:50;3.42;;;1.00;;
62121;SDS011;48108;47.532;19.084;2023-07-31T12:03:54;3.42;;;1.08;;
62121;SDS011;48108;47.532;19.084;2023-07-31T12:06:59;2.08;;;1.00;;
62121;SDS011;48108;47.532;19.084;2023-07-31T12:10:03;3.65;;;0.85;;
62121;SDS011;48108;47.532;19.084;2023-07-31T12:13:10;2.40;;;0.98;;
62121;SDS011;48108;47.532;19.084;2023-07-31T12:16:17;3.20;;;1.10;;
62121;SDS011;48108;47.532;19.084;2023-07-31T12:19:21;1.58;;;0.90;;
62121;SDS011;48108;47.532;19.084;2023-07-31T12:22:25;1.25;;;0.60;;
62121;SDS011;48108;47.532;19.084;2023-07-31T12:25:29;1.52;;;0.80;;
62121;SDS011;48108;47.532;19.084;2023-07-31T12:34:46;4.00;;;0.90;;
62121;SDS011;48108;47.532;19.084;2023-07-31T12:37:48;4.62;;;0.90;;
62121;SDS011;48108;47.532;19.084;2023-07-31T12:40:52;1.77;;;0.88;;
62121;SDS011;48108;47.532;19.084;2023-07-31T12:43:54;1.80;;;0.60;;
62121;SDS011;48108;47.532;19.084;2023-07-31T12:46:57;0.85;;;0.80;;
62121;SDS011;48108;47.532;19.084;2023-07-31T12:50:00;3.10;;;0.85;;
62121;SDS011;48108;47.532;19.084;2023-07-31T12:53:04;2.78;;;0.82;;
62121;SDS011;48108;47.532;19.084;2023-07-31T12:56:07;1.48;;;0.88;;
62121;SDS011;48108;47.532;19.084;2023-07-31T12:59:10;3.70;;;1.10;;
62121;SDS011;48108;47.532;19.084;2023-07-31T13:02:13;3.53;;;1.20;;
62121;SDS011;48108;47.532;19.084;2023-07-31T13:05:16;1.75;;;0.93;;
62121;SDS011;48108;47.532;19.084;2023-07-31T13:08:19;1.58;;;0.80;;
62121;SDS011;48108;47.532;19.084;2023-07-31T13:11:22;1.83;;;0.85;;
62121;SDS011;48108;47.532;19.084;2023-07-31T13:14:24;3.45;;;1.25;;
62121;SDS011;48108;47.532;19.084;2023-07-31T13:17:27;1.73;;;0.82;;
62121;SDS011;48108;47.532;19.084;2023-07-31T13:20:30;2.00;;;0.85;;
62121;SDS011;48108;47.532;19.084;2023-07-31T13:23:33;2.10;;;0.80;;
62121;SDS011;48108;47.532;19.084;2023-07-31T13:26:35;2.00;;;0.85;;
62121;SDS011;48108;47.532;19.084;2023-07-31T13:29:40;1.85;;;0.85;;
62121;SDS011;48108;47.532;19.084;2023-07-31T13:32:43;1.25;;;0.90;;
62121;SDS011;48108;47.532;19.084;2023-07-31T13:35:46;3.40;;;0.93;;
62121;SDS011;48108;47.532;19.084;2023-07-31T13:38:48;1.67;;;0.90;;
62121;SDS011;48108;47.532;19.084;2023-07-31T13:41:52;4.47;;;1.12;;
62121;SDS011;48108;47.532;19.084;2023-07-31T13:44:54;2.80;;;0.95;;
62121;SDS011;48108;47.532;19.084;2023-07-31T13:47:58;2.10;;;1.08;;
62121;SDS011;48108;47.532;19.084;2023-07-31T13:51:01;5.55;;;1.15;;
62121;SDS011;48108;47.532;19.084;2023-07-31T13:54:04;2.25;;;1.12;;
62121;SDS011;48108;47.532;19.084;2023-07-31T13:57:08;3.40;;;0.93;;
62121;SDS011;48108;47.532;19.084;2023-07-31T14:00:12;4.80;;;0.98;;
62121;SDS011;48108;47.532;19.084;2023-07-31T14:03:15;4.22;;;0.93;;
62121;SDS011;48108;47.532;19.084;2023-07-31T14:06:19;5.95;;;0.98;;
62121;SDS011;48108;47.532;19.084;2023-07-31T14:09:22;1.75;;;1.08;;
62121;SDS011;48108;47.532;19.084;2023-07-31T14:12:25;3.40;;;0.85;;
62121;SDS011;48108;47.532;19.084;2023-07-31T14:15:44;3.00;;;1.00;;
62121;SDS011;48108;47.532;19.084;2023-07-31T14:18:47;2.37;;;1.10;;
62121;SDS011;48108;47.532;19.084;2023-07-31T14:21:52;1.65;;;1.00;;
62121;SDS011;48108;47.532;19.084;2023-07-31T14:25:12;1.08;;;0.85;;
62121;SDS011;48108;47.532;19.084;2023-07-31T14:28:15;3.42;;;1.08;;
62121;SDS011;48108;47.532;19.084;2023-07-31T14:31:18;1.02;;;0.80;;
62121;SDS011;48108;47.532;19.084;2023-07-31T14:34:21;3.15;;;1.23;;
62121;SDS011;48108;47.532;19.084;2023-07-31T14:37:25;1.67;;;0.98;;
62121;SDS011;48108;47.532;19.084;2023-07-31T14:40:30;2.62;;;1.05;;
62121;SDS011;48108;47.532;19.084;2023-07-31T14:43:32;2.25;;;1.10;;
62121;SDS011;48108;47.532;19.084;2023-07-31T14:46:35;2.22;;;1.25;;
62121;SDS011;48108;47.532;19.084;2023-07-31T14:49:38;3.47;;;1.20;;
62121;SDS011;48108;47.532;19.084;2023-07-31T14:52:41;3.10;;;1.33;;
62121;SDS011;48108;47.532;19.084;2023-07-31T14:55:44;1.77;;;1.25;;
62121;SDS011;48108;47.532;19.084;2023-07-31T14:58:47;1.77;;;0.90;;
62121;SDS011;48108;47.532;19.084;2023-07-31T15:01:50;1.80;;;1.05;;
62121;SDS011;48108;47.532;19.084;2023-07-31T15:04:53;1.27;;;0.98;;
62121;SDS011;48108;47.532;19.084;2023-07-31T15:07:55;3.90;;;1.10;;
62121;SDS011;48108;47.532;19.084;2023-07-31T15:10:58;2.62;;;1.25;;
62121;SDS011;48108;47.532;19.084;2023-07-31T15:14:01;3.25;;;1.30;;
62121;SDS011;48108;47.532;19.084;2023-07-31T15:17:05;4.00;;;1.02;;
62121;SDS011;48108;47.532;19.084;2023-07-31T15:20:08;4.55;;;1.10;;
62121;SDS011;48108;47.532;19.084;2023-07-31T15:23:15;2.80;;;1.25;;
62121;SDS011;48108;47.532;19.084;2023-07-31T15:26:18;3.22;;;1.20;;
62121;SDS011;48108;47.532;19.084;2023-07-31T15:29:21;1.60;;;1.33;;
62121;SDS011;48108;47.532;19.084;2023-07-31T15:32:24;1.65;;;1.02;;
62121;SDS011;48108;47.532;19.084;2023-07-31T15:35:27;5.50;;;1.17;;
62121;SDS011;48108;47.532;19.084;2023-07-31T15:38:30;2.55;;;1.30;;
62121;SDS011;48108;47.532;19.084;2023-07-31T15:41:32;1.67;;;1.10;;
62121;SDS011;48108;47.532;19.084;2023-07-31T15:44:35;1.27;;;1.17;;
62121;SDS011;48108;47.532;19.084;2023-07-31T15:47:38;1.40;;;1.10;;
62121;SDS011;48108;47.532;19.084;2023-07-31T15:50:41;2.03;;;1.17;;
62121;SDS011;48108;47.532;19.084;2023-07-31T15:53:44;1.65;;;1.20;;
